Time;durP1;ratioP1;P1;durP2;ratioP2;P2;SDS_P1;SDS_P2;PMS_P1;PMS_P2;Temp;Humidity;BMP_temperature;BMP_pressure;BME280_temperature;BME280_humidity;BME280_pressure;Samples;Min_cycle;Max_cycle;Signal;HPM_P1;HPM_P2
2021/01/27 00:00:14;;;;;;;8.60;7.72;;;9.50;84.30;;;;;;4966762;28;20034;-72
2021/01/27 00:02:40;;;;;;;8.00;7.20;;;9.50;84.20;;;;;;4965672;28;20038;-72
2021/01/27 00:05:11;;;;;;;8.13;6.75;;;9.50;84.20;;;;;;4965731;28;20105;-73
2021/01/27 00:07:37;;;;;;;7.68;6.65;;;9.50;84.20;;;;;;4967000;28;20039;-71
2021/01/27 00:10:04;;;;;;;8.10;7.20;;;9.50;84.20;;;;;;4965279;28;20039;-71
2021/01/27 00:12:30;;;;;;;9.77;7.22;;;9.50;84.20;;;;;;4949604;28;20039;-70
2021/01/27 00:14:56;;;;;;;7.53;6.72;;;9.60;84.40;;;;;;4966381;28;20031;-73
2021/01/27 00:17:22;;;;;;;6.53;5.85;;;9.60;84.40;;;;;;4984400;28;20042;-70
2021/01/27 00:19:48;;;;;;;9.35;8.05;;;9.50;84.20;;;;;;4960571;28;20410;-76
2021/01/27 00:22:14;;;;;;;8.80;7.90;;;9.50;84.20;;;;;;4946617;28;20032;-72
2021/01/27 00:24:40;;;;;;;11.60;8.00;;;9.50;84.20;;;;;;4945834;28;20501;-71
2021/01/27 00:27:06;;;;;;;7.18;6.47;;;9.60;84.40;;;;;;4966528;28;20117;-71
2021/01/27 00:29:31;;;;;;;8.18;7.07;;;9.60;84.40;;;;;;4966437;28;20418;-70
2021/01/27 00:31:57;;;;;;;8.75;7.40;;;9.50;84.20;;;;;;4965345;28;20463;-72
2021/01/27 00:34:23;;;;;;;7.25;5.75;;;9.50;84.20;;;;;;4964480;28;20450;-72
2021/01/27 00:36:50;;;;;;;8.73;6.88;;;9.50;84.20;;;;;;4966219;28;20035;-72
2021/01/27 00:39:17;;;;;;;8.68;7.30;;;9.50;84.20;;;;;;4966223;28;20072;-74
2021/01/27 00:41:43;;;;;;;8.25;6.85;;;9.60;84.40;;;;;;4966011;28;20077;-72
2021/01/27 00:44:09;;;;;;;9.05;6.78;;;9.50;84.20;;;;;;4964757;28;20452;-73
2021/01/27 00:46:35;;;;;;;9.18;7.20;;;9.50;84.10;;;;;;4964495;28;20573;-73
2021/01/27 00:49:02;;;;;;;8.00;6.43;;;9.50;84.20;;;;;;4966194;28;20074;-71
2021/01/27 00:51:28;;;;;;;7.70;6.88;;;9.50;84.10;;;;;;4966367;28;20023;-75
2021/01/27 00:53:55;;;;;;;7.97;5.90;;;9.50;84.10;;;;;;4949108;28;20058;-74
2021/01/27 00:56:22;;;;;;;7.75;6.60;;;9.50;84.10;;;;;;4964884;28;20035;-73
2021/01/27 00:58:49;;;;;;;7.05;6.03;;;9.50;84.10;;;;;;4963810;28;20110;-72
2021/01/27 01:01:35;;;;;;;7.18;6.47;;;9.50;84.10;;;;;;4958264;28;20503;-71
2021/01/27 01:04:03;;;;;;;7.90;5.88;;;9.50;84.10;;;;;;4937497;29;20122;-71
2021/01/27 01:06:30;;;;;;;8.35;7.13;;;9.50;84.20;;;;;;4945549;28;20097;-72
2021/01/27 01:08:56;;;;;;;9.82;6.38;;;9.50;84.20;;;;;;4950010;28;20106;-73
2021/01/27 01:11:22;;;;;;;7.28;5.80;;;9.50;84.20;;;;;;4965961;28;20070;-71
2021/01/27 01:13:48;;;;;;;7.63;6.55;;;9.50;84.20;;;;;;4965442;28;20465;-70
2021/01/27 01:16:14;;;;;;;9.20;6.93;;;9.50;84.20;;;;;;4974402;28;20025;-73
2021/01/27 01:18:40;;;;;;;9.25;6.63;;;9.50;84.20;;;;;;4977292;28;20031;-73
2021/01/27 01:21:06;;;;;;;8.27;6.20;;;9.50;84.20;;;;;;4945310;28;20043;-73
2021/01/27 01:23:32;;;;;;;10.10;6.45;;;9.50;84.20;;;;;;4929383;29;20065;-73
2021/01/27 01:25:58;;;;;;;9.20;7.32;;;9.50;84.20;;;;;;4944818;28;20034;-71
2021/01/27 01:28:24;;;;;;;7.93;6.43;;;9.50;84.20;;;;;;4945713;28;20073;-71
2021/01/27 01:30:50;;;;;;;7.50;6.07;;;9.50;84.20;;;;;;4946408;28;20369;-71
2021/01/27 01:33:22;;;;;;;9.60;7.55;;;9.50;84.20;;;;;;4946176;28;20043;-71
2021/01/27 01:35:49;;;;;;;9.40;7.07;;;9.50;84.20;;;;;;4946719;28;20067;-75
2021/01/27 01:38:16;;;;;;;8.05;6.57;;;9.50;84.20;;;;;;4946230;28;20114;-71
2021/01/27 01:40:45;;;;;;;9.10;6.78;;;9.50;84.20;;;;;;4946383;28;20055;-73
2021/01/27 01:43:32;;;;;;;9.82;7.32;;;9.50;84.20;;;;;;4945753;28;20119;-74
2021/01/27 01:46:03;;;;;;;9.50;7.03;;;9.40;84.10;;;;;;4944941;28;20502;-73
2021/01/27 01:48:56;;;;;;;8.07;6.40;;;9.50;84.70;;;;;;4945954;28;20126;-71
2021/01/27 01:51:44;;;;;;;7.03;6.33;;;9.40;84.10;;;;;;4945078;28;20031;-74
2021/01/27 01:54:12;;;;;;;7.30;6.05;;;9.50;84.20;;;;;;4944253;28;20039;-73
2021/01/27 01:56:43;;;;;;;7.28;5.63;;;9.50;84.20;;;;;;4944615;28;20043;-73
2021/01/27 01:59:11;;;;;;;10.05;6.70;;;9.40;84.10;;;;;;4944046;28;20034;-72
2021/01/27 02:01:38;;;;;;;9.32;7.22;;;9.40;84.10;;;;;;4946372;28;20039;-75
2021/01/27 02:04:04;;;;;;;8.93;7.00;;;9.40;84.60;;;;;;4944395;28;20106;-73
2021/01/27 02:06:30;;;;;;;9.57;6.85;;;9.40;84.10;;;;;;4947923;28;20463;-73
2021/01/27 02:08:58;;;;;;;7.53;6.45;;;9.40;84.10;;;;;;4954222;28;20546;-72
2021/01/27 02:11:39;;;;;;;10.13;6.63;;;9.40;84.10;;;;;;4964237;28;20062;-71
2021/01/27 02:14:59;;;;;;;7.65;5.97;;;9.40;84.10;;;;;;4963613;28;20045;-71
2021/01/27 02:17:38;;;;;;;9.57;6.45;;;9.40;84.10;;;;;;4923765;29;20126;-72
2021/01/27 02:20:16;;;;;;;7.72;6.60;;;9.40;84.10;;;;;;4964928;28;20023;-72
2021/01/27 02:23:19;;;;;;;10.38;6.60;;;9.40;84.10;;;;;;4963831;28;20038;-71
2021/01/27 02:25:50;;;;;;;9.27;6.43;;;9.40;84.10;;;;;;4965259;28;20046;-71
2021/01/27 02:29:02;;;;;;;8.10;7.00;;;9.40;84.10;;;;;;4963407;28;20031;-70
2021/01/27 02:31:48;;;;;;;9.30;6.82;;;9.40;84.10;;;;;;4959223;28;20051;-75
2021/01/27 02:34:51;;;;;;;8.70;6.13;;;9.40;84.00;;;;;;4949794;28;20482;-71
2021/01/27 02:37:25;;;;;;;9.52;6.15;;;9.40;84.10;;;;;;4945945;28;20038;-71
2021/01/27 02:39:57;;;;;;;9.10;6.60;;;9.40;84.10;;;;;;4957851;28;20046;-70
2021/01/27 02:42:39;;;;;;;7.55;5.63;;;9.40;84.00;;;;;;4965035;28;20039;-74
2021/01/27 02:45:26;;;;;;;8.10;6.25;;;9.30;83.90;;;;;;4965339;28;20111;-76
2021/01/27 02:48:07;;;;;;;7.50;5.43;;;9.30;83.90;;;;;;4957341;28;20085;-74
2021/01/27 02:50:40;;;;;;;7.88;6.25;;;9.40;84.10;;;;;;4962469;28;20608;-74
2021/01/27 02:53:34;;;;;;;6.10;5.50;;;9.30;83.90;;;;;;4952569;28;20023;-74
2021/01/27 02:56:12;;;;;;;6.13;4.90;;;9.30;83.90;;;;;;4953689;28;20458;-75
2021/01/27 02:58:43;;;;;;;7.88;4.90;;;9.30;83.90;;;;;;4952300;28;20031;-72
2021/01/27 03:01:23;;;;;;;8.57;5.10;;;9.40;84.10;;;;;;4952407;28;20070;-76
2021/01/27 03:04:00;;;;;;;6.65;5.82;;;9.40;84.10;;;;;;4953935;28;20106;-72
2021/01/27 03:06:27;;;;;;;8.07;5.68;;;9.30;84.00;;;;;;4952048;28;20023;-74
2021/01/27 03:09:10;;;;;;;6.03;4.63;;;9.30;84.00;;;;;;4952503;28;20479;-75
2021/01/27 03:11:36;;;;;;;6.32;4.95;;;9.30;84.00;;;;;;4953292;28;20053;-77
2021/01/27 03:14:04;;;;;;;8.50;5.28;;;9.30;84.00;;;;;;4953490;28;20031;-71
2021/01/27 03:16:37;;;;;;;5.65;4.63;;;9.30;84.00;;;;;;4976760;28;20474;-75
2021/01/27 03:19:19;;;;;;;5.80;5.13;;;9.30;84.00;;;;;;5007156;28;20471;-72
2021/01/27 03:22:15;;;;;;;6.22;4.55;;;9.30;84.00;;;;;;4986047;28;20046;-72
2021/01/27 03:24:56;;;;;;;6.43;3.92;;;9.30;84.00;;;;;;4972355;28;20038;-74
2021/01/27 03:27:26;;;;;;;5.20;4.40;;;9.30;84.00;;;;;;4972083;28;20410;-72
2021/01/27 03:29:59;;;;;;;7.72;4.55;;;9.40;84.20;;;;;;4971109;28;20027;-72
2021/01/27 03:32:34;;;;;;;5.07;4.20;;;9.30;84.00;;;;;;4971105;28;20054;-74
2021/01/27 03:35:13;;;;;;;6.93;4.55;;;9.30;84.00;;;;;;4987492;28;20467;-75
2021/01/27 03:37:49;;;;;;;4.75;3.75;;;9.30;84.00;;;;;;4971245;28;20038;-72
2021/01/27 03:40:18;;;;;;;5.55;3.83;;;9.30;84.00;;;;;;4972279;28;20053;-71
2021/01/27 03:42:53;;;;;;;5.80;3.88;;;9.30;84.00;;;;;;4986894;28;20285;-77
2021/01/27 03:45:21;;;;;;;4.38;3.78;;;9.30;84.00;;;;;;4987193;28;20511;-73
2021/01/27 03:47:53;;;;;;;4.90;4.40;;;9.30;84.00;;;;;;4986939;28;20058;-75
2021/01/27 03:50:23;;;;;;;5.45;3.88;;;9.30;84.10;;;;;;4972332;28;20130;-71
2021/01/27 03:52:49;;;;;;;4.38;3.55;;;9.30;84.10;;;;;;4971927;28;20030;-72
2021/01/27 03:55:24;;;;;;;5.57;4.22;;;9.30;84.10;;;;;;4972219;28;20034;-75
2021/01/27 03:57:57;;;;;;;4.70;4.05;;;9.30;84.10;;;;;;4970015;28;20038;-71
2021/01/27 04:00:29;;;;;;;5.43;4.13;;;9.30;84.10;;;;;;4972064;28;20038;-76
2021/01/27 04:03:16;;;;;;;6.95;4.40;;;9.30;84.10;;;;;;4971958;28;20489;-73
2021/01/27 04:05:42;;;;;;;4.40;3.95;;;9.30;84.10;;;;;;4972018;28;20062;-75
2021/01/27 04:08:08;;;;;;;5.15;4.20;;;9.30;84.10;;;;;;4970762;28;20414;-76
2021/01/27 04:10:35;;;;;;;5.13;3.70;;;9.30;84.10;;;;;;4972165;28;20521;-71
2021/01/27 04:13:03;;;;;;;5.28;4.28;;;9.30;84.10;;;;;;4970406;28;20108;-75
2021/01/27 04:15:29;;;;;;;6.53;4.13;;;9.30;84.10;;;;;;4983188;28;20402;-71
2021/01/27 04:17:55;;;;;;;5.82;4.18;;;9.30;84.10;;;;;;4950851;28;20035;-77
2021/01/27 04:20:22;;;;;;;3.70;3.30;;;9.30;84.10;;;;;;4951097;28;20042;-77
2021/01/27 04:22:48;;;;;;;4.32;3.88;;;9.30;84.10;;;;;;4952383;28;20043;-75
2021/01/27 04:25:15;;;;;;;6.38;4.22;;;9.30;84.10;;;;;;4952186;28;20039;-72
2021/01/27 04:27:41;;;;;;;5.45;4.47;;;9.30;84.10;;;;;;4951841;28;20502;-72
2021/01/27 04:30:09;;;;;;;5.53;4.25;;;9.30;84.10;;;;;;4950584;28;20034;-77
2021/01/27 04:32:35;;;;;;;4.28;3.55;;;9.30;84.10;;;;;;4951950;28;20031;-77
2021/01/27 04:35:01;;;;;;;3.88;3.30;;;9.40;84.30;;;;;;4950507;29;20049;-72
2021/01/27 04:37:27;;;;;;;4.80;4.30;;;9.40;84.30;;;;;;4966653;28;20145;-73
2021/01/27 04:39:53;;;;;;;3.90;3.10;;;9.30;84.10;;;;;;4951914;28;20467;-73
2021/01/27 04:42:27;;;;;;;7.80;4.10;;;9.30;84.10;;;;;;4952153;28;20063;-76
2021/01/27 04:44:57;;;;;;;;;;;9.30;84.10;;;;;;4950821;28;20035;-72
2021/01/27 04:47:30;;;;;;;6.45;4.32;;;9.30;84.10;;;;;;4950265;29;19918;-71
2021/01/27 04:50:09;;;;;;;5.97;4.13;;;9.30;84.10;;;;;;4950361;28;20172;-72
2021/01/27 04:52:35;;;;;;;4.97;4.05;;;9.30;84.10;;;;;;4977226;28;20351;-76
2021/01/27 04:55:16;;;;;;;4.72;4.07;;;9.30;84.10;;;;;;4952219;28;20051;-71
2021/01/27 04:57:54;;;;;;;6.28;4.30;;;9.30;84.10;;;;;;4966196;28;20047;-75
2021/01/27 05:00:29;;;;;;;5.32;3.88;;;9.30;84.10;;;;;;4951649;28;20034;-73
2021/01/27 05:03:27;;;;;;;4.25;3.78;;;9.30;84.10;;;;;;4951451;28;20039;-73
2021/01/27 05:06:01;;;;;;;6.35;3.78;;;9.30;84.10;;;;;;4966653;28;20058;-74
2021/01/27 05:08:31;;;;;;;5.55;4.18;;;9.30;84.10;;;;;;4950851;28;20035;-75
2021/01/27 05:11:03;;;;;;;4.53;3.42;;;9.30;84.10;;;;;;4951769;28;20332;-72
2021/01/27 05:13:39;;;;;;;4.00;3.45;;;9.30;84.20;;;;;;4951645;28;20031;-75
2021/01/27 05:16:16;;;;;;;4.32;3.50;;;9.30;84.10;;;;;;4967454;28;20557;-71
2021/01/27 05:18:43;;;;;;;4.30;3.90;;;9.40;84.30;;;;;;4964774;28;20038;-73
2021/01/27 05:21:33;;;;;;;4.05;3.55;;;9.40;84.30;;;;;;4965846;28;20032;-77
2021/01/27 05:24:00;;;;;;;4.90;3.70;;;9.40;84.30;;;;;;4965526;28;20050;-76
2021/01/27 05:26:49;;;;;;;4.00;2.97;;;9.40;84.30;;;;;;4970656;28;20031;-71
2021/01/27 05:29:23;;;;;;;3.92;3.53;;;9.40;84.30;;;;;;4939978;28;20141;-73
2021/01/27 05:31:59;;;;;;;3.53;3.03;;;9.30;84.10;;;;;;4951111;28;20027;-75
2021/01/27 05:34:46;;;;;;;3.88;3.40;;;9.40;84.30;;;;;;4968225;28;20038;-72
2021/01/27 05:37:29;;;;;;;5.80;3.15;;;9.40;84.30;;;;;;4951025;28;20028;-73
2021/01/27 05:40:14;;;;;;;3.00;2.70;;;9.40;84.30;;;;;;4949527;28;20122;-75
2021/01/27 05:42:42;;;;;;;3.63;2.75;;;9.40;84.30;;;;;;4965741;28;20034;-70
2021/01/27 05:45:27;;;;;;;3.15;2.75;;;9.40;84.30;;;;;;4969929;28;20038;-73
2021/01/27 05:47:53;;;;;;;3.58;3.03;;;9.40;84.30;;;;;;4962083;28;20052;-71
2021/01/27 05:50:31;;;;;;;3.90;3.47;;;9.40;84.30;;;;;;4929460;29;20054;-71
2021/01/27 05:53:14;;;;;;;3.20;2.90;;;9.30;84.20;;;;;;4950749;28;20035;-75
2021/01/27 05:56:02;;;;;;;3.67;3.17;;;9.40;84.30;;;;;;4950512;28;20122;-73
2021/01/27 05:58:32;;;;;;;3.78;2.70;;;9.40;84.30;;;;;;4971912;28;20031;-72
2021/01/27 06:01:34;;;;;;;4.10;2.60;;;9.40;84.30;;;;;;4960584;28;20026;-74
2021/01/27 06:04:01;;;;;;;3.35;2.40;;;9.40;84.40;;;;;;4956500;28;20086;-73
2021/01/27 06:06:32;;;;;;;3.75;3.03;;;9.40;84.30;;;;;;4953115;28;20027;-72
2021/01/27 06:08:59;;;;;;;4.32;3.03;;;9.40;84.40;;;;;;4955748;28;20122;-71
2021/01/27 06:11:26;;;;;;;3.95;2.92;;;9.40;84.40;;;;;;4948990;28;20309;-75
2021/01/27 06:14:06;;;;;;;3.30;2.53;;;9.40;84.40;;;;;;4951635;28;20336;-72
2021/01/27 06:16:46;;;;;;;3.15;2.85;;;9.40;84.40;;;;;;4969122;28;20027;-71
2021/01/27 06:19:18;;;;;;;3.30;3.00;;;9.40;84.40;;;;;;4957832;28;20035;-74
2021/01/27 06:22:06;;;;;;;2.65;2.33;;;9.40;84.40;;;;;;4952486;28;20067;-76
2021/01/27 06:25:19;;;;;;;3.15;2.83;;;9.40;84.40;;;;;;4977776;28;20145;-72
2021/01/27 06:28:13;;;;;;;4.13;2.63;;;9.40;84.40;;;;;;4945670;28;20042;-73
2021/01/27 06:30:53;;;;;;;3.40;2.53;;;9.40;84.40;;;;;;4958188;28;20134;-69
2021/01/27 06:33:45;;;;;;;3.53;2.60;;;9.40;84.40;;;;;;4966652;28;20440;-72
2021/01/27 06:36:29;;;;;;;3.38;2.75;;;9.40;84.40;;;;;;4950921;28;20035;-72
2021/01/27 06:38:58;;;;;;;4.22;3.17;;;9.40;84.40;;;;;;4956107;28;20177;-71
2021/01/27 06:41:54;;;;;;;2.90;2.60;;;9.40;84.40;;;;;;4948638;28;20042;-71
2021/01/27 06:44:23;;;;;;;3.38;3.05;;;9.40;84.40;;;;;;4949109;28;20056;-72
2021/01/27 06:46:49;;;;;;;3.38;3.00;;;9.30;84.20;;;;;;4948738;28;20055;-71
2021/01/27 06:49:27;;;;;;;3.58;2.65;;;9.40;84.40;;;;;;4961656;28;20053;-77
2021/01/27 06:52:31;;;;;;;2.92;2.38;;;9.40;84.40;;;;;;4968253;28;20470;-71
2021/01/27 06:55:50;;;;;;;4.25;2.72;;;9.40;84.40;;;;;;4926227;29;20036;-73
2021/01/27 06:58:38;;;;;;;2.70;2.20;;;9.40;84.40;;;;;;4883601;29;20462;-71
2021/01/27 07:01:12;;;;;;;3.25;2.78;;;9.40;84.40;;;;;;4956247;28;20884;-71
2021/01/27 07:04:11;;;;;;;4.43;2.92;;;9.40;84.40;;;;;;4977066;28;20035;-71
2021/01/27 07:06:55;;;;;;;2.60;2.38;;;9.40;84.40;;;;;;4943029;28;20047;-71
2021/01/27 07:09:48;;;;;;;3.00;2.70;;;9.40;84.40;;;;;;4963219;28;20031;-71
2021/01/27 07:12:37;;;;;;;2.80;2.50;;;9.40;84.40;;;;;;4980398;28;20491;-71
2021/01/27 07:15:21;;;;;;;2.83;2.53;;;9.40;84.40;;;;;;4947516;28;20046;-71
2021/01/27 07:18:26;;;;;;;2.97;2.67;;;9.40;84.40;;;;;;4979303;28;20026;-73
2021/01/27 07:21:05;;;;;;;2.95;2.67;;;9.40;84.40;;;;;;4947560;28;20024;-71
2021/01/27 07:23:37;;;;;;;3.15;2.38;;;9.40;84.40;;;;;;4947946;28;20062;-72
2021/01/27 07:26:24;;;;;;;3.78;2.72;;;9.40;84.40;;;;;;4965950;28;20066;-71
2021/01/27 07:29:26;;;;;;;3.45;2.70;;;9.40;84.50;;;;;;4954930;28;20038;-72
2021/01/27 07:32:05;;;;;;;2.85;2.63;;;9.40;84.50;;;;;;4933684;28;20126;-71
2021/01/27 07:34:47;;;;;;;2.70;2.30;;;9.40;84.50;;;;;;4947712;28;20042;-71
2021/01/27 07:37:16;;;;;;;4.32;2.83;;;9.40;84.50;;;;;;4946536;28;20027;-72
2021/01/27 07:40:06;;;;;;;5.35;2.97;;;9.40;84.50;;;;;;4965226;28;20039;-71
2021/01/27 07:42:52;;;;;;;4.97;2.65;;;9.50;84.70;;;;;;4966791;28;20041;-73
2021/01/27 07:45:28;;;;;;;3.38;3.08;;;9.50;84.70;;;;;;4965926;28;20570;-72
2021/01/27 07:48:15;;;;;;;3.50;3.20;;;9.50;84.70;;;;;;4965335;28;20047;-71
2021/01/27 07:50:47;;;;;;;4.28;3.60;;;9.50;84.70;;;;;;4965796;28;20041;-71
2021/01/27 07:53:24;;;;;;;4.10;3.22;;;9.50;84.70;;;;;;4949792;28;20030;-71
2021/01/27 07:56:13;;;;;;;4.10;3.30;;;9.50;84.70;;;;;;4965765;28;20377;-72
2021/01/27 07:58:57;;;;;;;4.78;4.28;;;9.50;84.70;;;;;;4962182;28;20043;-71
2021/01/27 08:01:37;;;;;;;;;;;9.50;84.70;;;;;;4949988;28;20037;-71
2021/01/27 08:04:36;;;;;;;3.25;2.95;;;9.50;84.70;;;;;;4977759;28;19930;-72
2021/01/27 08:07:02;;;;;;;6.78;3.80;;;9.50;84.60;;;;;;4948405;28;20529;-73
2021/01/27 08:09:38;;;;;;;4.18;3.72;;;9.50;84.60;;;;;;4945202;28;20085;-72
2021/01/27 08:12:10;;;;;;;4.28;3.83;;;9.60;84.80;;;;;;4948699;28;20509;-73
2021/01/27 08:15:04;;;;;;;5.45;3.75;;;9.50;84.60;;;;;;4966768;28;20054;-73
2021/01/27 08:17:59;;;;;;;3.80;3.30;;;9.60;84.90;;;;;;4930333;29;20118;-80
2021/01/27 08:20:33;;;;;;;4.15;3.60;;;9.50;84.70;;;;;;4960546;28;20395;-73
2021/01/27 08:23:02;;;;;;;4.55;4.15;;;9.50;84.70;;;;;;4955079;28;20059;-77
2021/01/27 08:25:52;;;;;;;3.97;3.58;;;9.50;84.70;;;;;;4961261;28;20114;-78
2021/01/27 08:28:33;;;;;;;4.63;3.70;;;9.60;84.90;;;;;;4959722;28;20034;-74
2021/01/27 08:31:08;;;;;;;5.07;3.85;;;9.60;84.90;;;;;;4964252;28;20510;-75
2021/01/27 08:33:46;;;;;;;4.40;3.95;;;9.60;84.90;;;;;;4953873;28;20059;-73
2021/01/27 08:36:33;;;;;;;4.55;4.00;;;9.60;84.90;;;;;;4945040;28;20031;-74
2021/01/27 08:39:02;;;;;;;4.22;3.83;;;9.60;84.90;;;;;;4929242;29;20545;-72
2021/01/27 08:41:59;;;;;;;4.97;3.65;;;9.60;84.90;;;;;;4945266;28;20031;-77
2021/01/27 08:44:39;;;;;;;4.35;3.60;;;9.60;85.00;;;;;;4946318;28;20125;-76
2021/01/27 08:47:17;;;;;;;4.57;4.03;;;9.70;85.10;;;;;;4945142;29;20093;-74
2021/01/27 08:49:46;;;;;;;4.10;3.70;;;9.70;85.10;;;;;;4963666;28;20125;-72
2021/01/27 08:52:12;;;;;;;4.85;3.83;;;9.70;85.10;;;;;;4965328;28;20026;-77
2021/01/27 08:54:38;;;;;;;5.35;3.97;;;9.70;85.10;;;;;;4948468;28;20038;-74
2021/01/27 08:57:17;;;;;;;5.05;3.95;;;9.70;85.10;;;;;;4948194;28;20077;-73
2021/01/27 08:59:55;;;;;;;4.63;4.22;;;9.70;85.10;;;;;;4945039;29;20046;-72
2021/01/27 09:02:45;;;;;;;5.05;3.95;;;9.70;85.10;;;;;;4949492;28;20118;-74
2021/01/27 09:05:25;;;;;;;4.13;3.72;;;9.80;85.30;;;;;;4964914;28;20046;-71
2021/01/27 09:07:59;;;;;;;4.70;4.05;;;9.80;85.20;;;;;;4964038;28;20035;-78
2021/01/27 09:10:35;;;;;;;4.25;3.85;;;9.80;85.20;;;;;;4965728;28;20363;-78
2021/01/27 09:13:40;;;;;;;4.40;3.47;;;9.80;85.30;;;;;;4966108;28;20114;-71
2021/01/27 09:16:06;;;;;;;;;;;9.80;85.30;;;;;;4973087;28;20502;-77
2021/01/27 09:18:33;;;;;;;4.05;3.45;;;9.80;85.20;;;;;;4969827;28;19973;-85
2021/01/27 09:21:04;;;;;;;3.75;3.45;;;9.90;85.30;;;;;;4946620;28;20128;-71
2021/01/27 09:23:31;;;;;;;4.65;4.18;;;9.90;85.30;;;;;;4946441;28;20047;-75
2021/01/27 09:26:00;;;;;;;4.28;3.72;;;9.90;85.30;;;;;;4946441;28;20023;-80
2021/01/27 09:28:26;;;;;;;4.22;3.72;;;9.90;85.40;;;;;;4951557;28;20442;-72
2021/01/27 09:30:54;;;;;;;3.47;3.10;;;9.90;85.40;;;;;;4956621;28;20066;-76
2021/01/27 09:33:31;;;;;;;4.65;3.88;;;9.90;85.40;;;;;;4965129;28;20065;-74
2021/01/27 09:36:08;;;;;;;3.97;3.63;;;10.00;85.60;;;;;;4965533;28;20517;-79
2021/01/27 09:38:35;;;;;;;4.43;4.03;;;10.00;86.10;;;;;;4964372;28;20050;-76
2021/01/27 09:41:12;;;;;;;4.80;3.88;;;10.00;85.60;;;;;;4963734;28;20027;-76
2021/01/27 09:43:43;;;;;;;5.30;3.20;;;10.00;85.50;;;;;;4965655;28;20510;-74
2021/01/27 09:46:18;;;;;;;4.05;3.47;;;10.10;85.70;;;;;;4964496;28;20162;-73
2021/01/27 09:48:45;;;;;;;3.78;3.22;;;10.10;85.70;;;;;;4964374;28;20066;-73
2021/01/27 09:51:13;;;;;;;3.95;3.20;;;10.10;85.70;;;;;;4964825;28;20043;-73
2021/01/27 09:53:41;;;;;;;4.03;3.63;;;10.10;85.60;;;;;;4976838;28;20034;-78
2021/01/27 09:56:10;;;;;;;3.80;3.40;;;10.20;85.80;;;;;;4980367;28;20434;-77
2021/01/27 09:58:40;;;;;;;3.85;3.38;;;10.20;85.80;;;;;;4968043;28;20281;-73
2021/01/27 10:01:17;;;;;;;5.00;2.90;;;10.20;85.80;;;;;;4969543;28;20482;-78
2021/01/27 10:03:49;;;;;;;4.40;3.55;;;10.20;85.70;;;;;;4969339;28;20569;-72
2021/01/27 10:06:36;;;;;;;3.72;3.40;;;10.30;85.90;;;;;;4969494;28;20533;-70
2021/01/27 10:09:13;;;;;;;3.50;3.20;;;10.30;85.90;;;;;;4950878;28;20053;-71
2021/01/27 10:11:40;;;;;;;4.22;3.78;;;10.30;85.80;;;;;;4984158;28;20114;-70
2021/01/27 10:14:20;;;;;;;3.70;3.38;;;10.30;85.80;;;;;;4951032;28;20043;-70
2021/01/27 10:16:55;;;;;;;3.17;2.88;;;10.30;85.80;;;;;;4982958;28;20034;-74
2021/01/27 10:19:28;;;;;;;3.88;3.17;;;10.40;86.00;;;;;;4972866;28;20035;-71
2021/01/27 10:21:57;;;;;;;3.85;3.55;;;10.40;86.00;;;;;;4967527;28;20038;-71
2021/01/27 10:24:42;;;;;;;4.18;3.28;;;10.40;86.00;;;;;;4980476;28;20541;-70
2021/01/27 10:27:14;;;;;;;4.07;3.67;;;10.40;86.00;;;;;;4961741;28;20038;-70
2021/01/27 10:29:40;;;;;;;4.05;2.92;;;10.50;86.10;;;;;;4961430;28;20031;-72
2021/01/27 10:32:17;;;;;;;4.07;3.53;;;10.50;86.10;;;;;;4963052;28;20034;-71
2021/01/27 10:34:45;;;;;;;3.67;3.38;;;10.60;86.30;;;;;;4967271;28;20042;-81
2021/01/27 10:37:33;;;;;;;5.05;3.65;;;10.60;86.20;;;;;;4951050;28;20122;-73
2021/01/27 10:40:17;;;;;;;3.67;2.97;;;10.70;86.40;;;;;;4968341;28;20061;-78
2021/01/27 10:43:03;;;;;;;;;;;10.70;86.30;;;;;;4967588;28;20062;-72
2021/01/27 10:45:39;;;;;;;3.60;3.20;;;10.80;86.40;;;;;;4965992;28;19940;-74
2021/01/27 10:48:11;;;;;;;3.47;3.00;;;10.80;86.20;;;;;;4950920;28;20043;-79
2021/01/27 10:51:03;;;;;;;5.00;3.33;;;10.90;86.30;;;;;;4968948;28;20126;-72
2021/01/27 10:53:38;;;;;;;3.58;3.25;;;11.00;86.50;;;;;;4965619;28;20057;-71
2021/01/27 10:56:04;;;;;;;3.40;3.10;;;11.00;86.50;;;;;;4980031;28;20031;-72
2021/01/27 10:58:30;;;;;;;2.83;2.55;;;11.00;86.40;;;;;;4956296;28;20062;-78
2021/01/27 11:00:57;;;;;;;3.38;2.80;;;11.10;86.50;;;;;;4967121;28;20039;-73
2021/01/27 11:03:23;;;;;;;4.10;2.78;;;11.10;86.50;;;;;;4967701;28;20057;-72
2021/01/27 11:05:49;;;;;;;2.60;2.33;;;11.10;86.60;;;;;;4966867;28;20055;-71
2021/01/27 11:08:27;;;;;;;2.80;2.60;;;11.20;87.00;;;;;;4967649;28;20451;-71
2021/01/27 11:10:57;;;;;;;3.45;3.15;;;11.40;87.40;;;;;;4967981;28;20161;-71
2021/01/27 11:13:24;;;;;;;4.68;4.28;;;11.50;87.50;;;;;;4967624;28;20026;-72
2021/01/27 11:15:50;;;;;;;4.18;3.78;;;11.60;87.50;;;;;;4974781;28;20039;-71
2021/01/27 11:18:17;;;;;;;4.03;3.72;;;11.70;87.60;;;;;;4977136;28;20043;-71
2021/01/27 11:20:45;;;;;;;6.45;3.50;;;11.80;87.50;;;;;;4949579;28;20047;-71
2021/01/27 11:23:11;;;;;;;4.43;3.60;;;11.90;87.50;;;;;;4938189;28;20574;-72
2021/01/27 11:25:36;;;;;;;4.93;3.80;;;11.90;87.40;;;;;;4967264;28;20034;-71
2021/01/27 11:28:03;;;;;;;3.95;3.53;;;11.90;87.40;;;;;;4966046;28;20042;-71
2021/01/27 11:30:29;;;;;;;4.20;3.80;;;12.00;87.60;;;;;;4967842;28;20117;-70
2021/01/27 11:32:56;;;;;;;4.68;3.30;;;12.00;87.50;;;;;;4967223;28;20435;-71
2021/01/27 11:35:23;;;;;;;5.47;3.85;;;12.00;87.50;;;;;;4967498;28;20194;-70
2021/01/27 11:37:50;;;;;;;3.63;3.33;;;12.10;87.60;;;;;;4957487;28;20090;-72
2021/01/27 11:40:19;;;;;;;3.60;3.35;;;12.10;87.60;;;;;;4973580;28;20034;-71
2021/01/27 11:42:46;;;;;;;3.40;3.00;;;12.10;87.60;;;;;;4953300;28;20466;-72
2021/01/27 11:45:13;;;;;;;3.22;2.70;;;12.10;87.50;;;;;;4967757;28;20034;-72
2021/01/27 11:47:39;;;;;;;2.83;2.60;;;12.10;87.40;;;;;;4965573;28;20138;-71
2021/01/27 11:50:06;;;;;;;3.35;3.05;;;12.20;87.60;;;;;;4966089;28;20507;-72
2021/01/27 11:52:33;;;;;;;3.58;3.17;;;12.10;87.40;;;;;;4967047;28;20035;-70
2021/01/27 11:54:59;;;;;;;3.20;2.53;;;12.20;87.50;;;;;;4965862;28;20344;-72
2021/01/27 11:57:26;;;;;;;2.40;2.22;;;12.10;87.30;;;;;;4965975;28;20095;-72
2021/01/27 11:59:52;;;;;;;3.67;2.83;;;12.10;87.30;;;;;;4981750;28;20163;-72
2021/01/27 12:02:18;;;;;;;2.50;2.20;;;12.20;87.50;;;;;;4965481;28;20034;-72
2021/01/27 12:04:44;;;;;;;2.65;2.45;;;12.10;87.30;;;;;;4965745;28;20035;-71
2021/01/27 12:07:10;;;;;;;2.53;2.33;;;12.10;87.30;;;;;;4965560;28;20158;-72
2021/01/27 12:09:36;;;;;;;2.05;1.92;;;12.20;87.40;;;;;;4958037;28;20030;-73
2021/01/27 12:12:07;;;;;;;2.80;2.60;;;12.20;87.40;;;;;;4956741;28;20442;-71
2021/01/27 12:14:34;;;;;;;3.55;2.38;;;12.20;87.30;;;;;;4947231;28;20035;-72
2021/01/27 12:17:00;;;;;;;2.33;2.13;;;12.20;87.30;;;;;;4977604;28;20034;-72
2021/01/27 12:19:26;;;;;;;2.50;2.30;;;12.10;87.10;;;;;;4958319;28;20489;-71
2021/01/27 12:21:52;;;;;;;1.83;1.70;;;12.10;87.00;;;;;;4952235;28;20407;-71
2021/01/27 12:24:18;;;;;;;3.78;2.42;;;12.10;87.00;;;;;;4949114;28;20550;-71
2021/01/27 12:26:45;;;;;;;2.85;2.50;;;12.10;87.00;;;;;;4958891;28;20037;-71
2021/01/27 12:29:11;;;;;;;3.28;2.20;;;12.10;87.00;;;;;;4954813;28;20049;-71
2021/01/27 12:31:37;;;;;;;2.53;2.33;;;12.10;86.90;;;;;;4945832;28;20360;-73
2021/01/27 12:34:04;;;;;;;4.05;2.58;;;12.10;86.90;;;;;;4946916;28;20247;-72
2021/01/27 12:36:30;;;;;;;2.50;2.30;;;12.10;86.90;;;;;;4945632;28;20118;-72
2021/01/27 12:38:56;;;;;;;2.60;2.40;;;12.10;86.90;;;;;;4955068;28;20034;-72
2021/01/27 12:41:22;;;;;;;2.50;2.30;;;12.10;86.90;;;;;;4964651;28;20521;-73
2021/01/27 12:43:50;;;;;;;2.50;2.22;;;12.10;86.90;;;;;;4965997;28;20038;-72
2021/01/27 12:46:16;;;;;;;2.58;2.35;;;12.10;86.80;;;;;;4966183;28;20375;-71
2021/01/27 12:48:42;;;;;;;2.78;2.00;;;12.10;86.70;;;;;;4966023;28;20038;-73
2021/01/27 12:51:08;;;;;;;2.13;1.92;;;12.10;86.70;;;;;;4948974;28;20046;-72
2021/01/27 12:53:34;;;;;;;2.20;2.00;;;12.10;86.70;;;;;;4977857;28;20181;-71
2021/01/27 12:56:00;;;;;;;2.33;2.13;;;12.20;86.80;;;;;;4951058;28;20031;-72
2021/01/27 12:58:26;;;;;;;2.55;1.90;;;12.20;86.80;;;;;;4965007;28;20038;-72
2021/01/27 13:00:52;;;;;;;2.10;1.85;;;12.20;86.70;;;;;;4965810;28;20536;-71
2021/01/27 13:03:18;;;;;;;2.38;2.13;;;12.20;86.70;;;;;;4965387;28;20050;-72
2021/01/27 13:05:45;;;;;;;5.22;2.00;;;12.20;86.60;;;;;;4966024;28;20031;-71
2021/01/27 13:08:11;;;;;;;1.80;1.70;;;12.20;86.60;;;;;;4948664;28;20624;-76
2021/01/27 13:10:41;;;;;;;3.30;2.00;;;12.20;86.60;;;;;;4965953;28;20054;-72
2021/01/27 13:13:12;;;;;;;2.25;2.05;;;12.20;86.60;;;;;;4965861;28;20118;-72
2021/01/27 13:15:38;;;;;;;2.13;1.80;;;12.20;86.50;;;;;;4962535;28;20144;-71
2021/01/27 13:18:04;;;;;;;2.10;1.80;;;12.30;86.60;;;;;;4976634;28;20046;-74
2021/01/27 13:20:31;;;;;;;2.58;2.00;;;12.30;86.60;;;;;;4963265;28;20033;-75
2021/01/27 13:22:56;;;;;;;2.95;1.85;;;12.30;86.50;;;;;;4958863;28;20043;-73
2021/01/27 13:25:24;;;;;;;2.53;2.00;;;12.30;86.50;;;;;;4947964;28;20455;-73
2021/01/27 13:27:50;;;;;;;2.55;1.65;;;12.30;86.50;;;;;;4964992;28;20406;-72
2021/01/27 13:30:17;;;;;;;2.80;2.00;;;12.30;86.40;;;;;;4946062;28;20376;-73